.
WxDataArchive / Data Records for 2012-10-12
2012-10-11 October 2012 2012-10-13

Data Records for Friday, 12 October 2012

Time	Temp	Chill	HIndex	Humid	Dewpt	 Wind 	HiWind	WindDir	Rain 	Barom 
-----	----	-----	------	-----	-----	------	------	-------	-----	----- 
00:00	53.2	53.2	53.2	51	35.5	0	1	248	0.00	30.144 
00:05	53.2	53.2	53.2	50	35.0	0	1	248	0.00	30.144 
00:10	53.3	53.3	53.3	50	35.1	1	4	248	0.00	30.144 
00:15	53.5	53.5	53.5	50	35.3	1	3	270	0.00	30.168 
00:20	53.5	53.5	53.5	50	35.3	1	3	292	0.00	30.168 
00:25	53.3	53.3	53.3	50	35.1	1	4	292	0.00	30.168 
00:30	53.3	53.3	53.3	51	35.6	1	4	292	0.00	30.172 
00:35	53.2	53.2	53.2	51	35.5	1	2	292	0.00	30.172 
00:40	53.1	53.1	53.1	51	35.5	0	2	292	0.00	30.172 
00:45	52.9	52.9	52.9	52	35.8	0	2	292	0.00	30.168 
00:50	52.8	52.8	52.8	52	35.7	1	3	292	0.00	30.168 
00:55	52.8	52.8	52.8	52	35.7	1	3	292	0.00	30.168 
01:00	52.8	52.8	52.8	52	35.7	0	2	292	0.00	30.172 
01:05	52.8	52.8	52.8	53	36.1	0	1	292	0.00	30.172 
01:10	52.6	52.6	52.6	53	36.0	0	2	292	0.00	30.172 
01:15	52.5	52.5	52.5	54	36.3	1	3	292	0.00	30.173 
01:20	52.5	52.5	52.5	56	37.3	1	4	315	0.00	30.173 
01:25	52.2	52.2	52.2	58	37.9	0	2	315	0.00	30.173 
01:30	52.0	52.0	52.0	60	38.5	1	3	315	0.00	30.183 
01:35	51.9	51.9	51.9	61	38.9	1	4	315	0.00	30.183 
01:40	51.6	51.6	51.6	62	39.0	1	3	22	0.00	30.183 
01:45	51.4	51.4	51.4	63	39.2	1	2	22	0.00	30.183 
01:50	51.3	51.3	51.3	64	39.5	0	2	22	0.00	30.183 
01:55	51.0	51.0	51.0	65	39.7	1	4	22	0.00	30.183 
02:00	50.8	50.8	50.8	65	39.5	0	2	338	0.00	30.188 
02:05	50.7	50.7	50.7	65	39.4	1	6	0	0.00	30.188 
02:10	50.5	50.5	50.5	66	39.6	0	6	270	0.00	30.188 
02:15	50.2	50.2	50.2	66	39.3	0	2	292	0.00	30.202 
02:20	50.1	50.1	50.1	66	39.2	0	3	338	0.00	30.202 
02:25	49.9	49.9	49.9	66	39.0	1	3	338	0.00	30.202 
02:30	49.8	49.8	49.8	67	39.3	0	2	338	0.00	30.204 
02:35	49.6	49.6	49.6	67	39.1	1	4	315	0.00	30.204 
02:40	49.5	49.5	49.5	67	39.0	1	4	270	0.00	30.204 
02:45	49.4	49.4	49.4	68	39.3	0	2	338	0.00	30.209 
02:50	49.2	49.2	49.2	68	39.1	0	2	338	0.00	30.209 
02:55	49.2	49.2	49.2	69	39.5	0	3	338	0.00	30.209 
03:00	49.1	49.1	49.1	69	39.4	0	2	338	0.00	30.205 
03:05	48.9	48.9	48.9	69	39.2	0	4	22	0.00	30.205 
03:10	48.8	48.8	48.8	70	39.5	0	1	292	0.00	30.205 
03:15	48.6	48.6	48.6	70	39.3	0	3	338	0.00	30.214 
03:20	48.5	48.5	48.5	71	39.5	0	4	292	0.00	30.214 
03:25	48.5	48.5	48.5	71	39.5	0	2	292	0.00	30.214 
03:30	48.0	48.0	48.0	71	39.1	1	4	112	0.00	30.212 
03:35	47.4	47.4	47.4	71	38.5	1	5	22	0.00	30.212 
03:40	47.1	47.1	47.1	71	38.2	0	3	135	0.00	30.212 
03:45	46.8	46.8	46.8	72	38.3	0	2	22	0.00	30.228 
03:50	46.7	46.7	46.7	72	38.2	0	1	22	0.00	30.228 
03:55	46.5	46.5	46.5	72	38.0	0	3	315	0.00	30.228 
04:00	46.4	46.4	46.4	71	37.5	0	3	0	0.00	30.236 
04:05	46.4	46.4	46.4	70	37.2	0	2	338	0.00	30.236 
04:10	46.2	46.2	46.2	70	37.0	0	1	315	0.00	30.236 
04:15	46.2	46.2	46.2	71	37.3	0	1	315	0.00	30.243 
04:20	46.1	46.1	46.1	70	36.9	0	3	315	0.00	30.243 
04:25	46.0	46.0	46.0	70	36.8	0	3	45	0.00	30.243 
04:30	45.8	45.8	45.8	70	36.6	1	6	292	0.00	30.252 
04:35	45.8	45.8	45.8	70	36.6	0	2	315	0.00	30.252 
04:40	45.7	45.7	45.7	70	36.5	1	5	315	0.00	30.252 
04:45	45.5	45.5	45.5	70	36.3	0	4	338	0.00	30.257 
04:50	45.4	45.4	45.4	70	36.2	0	3	292	0.00	30.257 
04:55	45.4	45.4	45.4	70	36.2	0	2	225	0.00	30.257 
05:00	45.2	45.2	45.2	70	36.0	0	2	225	0.00	30.267 
05:05	45.1	45.1	45.1	69	35.5	1	5	45	0.00	30.267 
05:10	44.9	44.9	44.9	68	35.0	0	2	338	0.00	30.267 
05:15	44.8	44.8	44.8	69	35.3	0	2	0	0.00	30.271 
05:20	44.8	44.8	44.8	69	35.3	0	1	0	0.00	30.271 
05:25	44.6	44.6	44.6	70	35.4	0	3	292	0.00	30.271 
05:30	44.5	44.5	44.5	70	35.3	0	3	135	0.00	30.285 
05:35	44.5	44.5	44.5	71	35.7	0	3	0	0.00	30.285 
05:40	44.3	44.3	44.3	71	35.5	0	4	135	0.00	30.285 
05:45	44.3	44.3	44.3	71	35.5	0	3	22	0.00	30.298 
05:50	44.2	44.2	44.2	71	35.4	1	5	315	0.00	30.298 
05:55	44.2	44.2	44.2	71	35.4	1	3	158	0.00	30.298 
06:00	44.1	44.1	44.1	72	35.7	0	2	248	0.00	30.303 
06:05	43.9	43.9	43.9	73	35.8	0	2	248	0.00	30.303 
06:10	43.9	43.9	43.9	73	35.8	0	4	135	0.00	30.303 
06:15	43.8	43.8	43.8	74	36.1	0	1	135	0.00	30.313 
06:20	43.6	43.6	43.6	74	35.9	0	1	45	0.00	30.313 
06:25	43.6	43.6	43.6	75	36.2	0	1	45	0.00	30.313 
06:30	43.5	43.5	43.5	75	36.1	0	1	45	0.00	30.321 
06:35	43.5	43.5	43.5	76	36.4	0	0	---	0.00	30.321 
06:40	43.3	43.3	43.3	76	36.3	0	2	45	0.00	30.321 
06:45	43.3	43.3	43.3	76	36.3	0	2	90	0.00	30.322 
06:50	43.3	43.3	43.3	76	36.3	0	0	---	0.00	30.322 
06:55	43.3	43.3	43.3	77	36.6	0	0	---	0.00	30.322 
07:00	43.3	43.3	43.3	77	36.6	0	1	90	0.00	30.333 
07:05	43.3	43.3	43.3	77	36.6	0	0	---	0.00	30.333 
07:10	43.3	43.3	43.3	77	36.6	0	0	---	0.00	30.333 
07:15	43.3	43.3	43.3	76	36.3	0	0	---	0.00	30.338 
07:20	43.3	43.3	43.3	75	35.9	0	1	90	0.00	30.338 
07:25	43.3	43.3	43.3	76	36.3	0	0	---	0.00	30.338 
07:30	43.2	43.2	43.2	75	35.8	0	1	90	0.00	30.339 
07:35	43.2	43.2	43.2	74	35.5	0	1	90	0.00	30.339 
07:40	43.2	43.2	43.2	74	35.5	0	1	90	0.00	30.339 
07:45	43.2	43.2	43.2	73	35.1	0	2	90	0.00	30.348 
07:50	43.2	43.2	43.2	73	35.1	0	1	90	0.00	30.348 
07:55	43.1	43.1	43.1	73	35.0	0	1	90	0.00	30.348 
08:00	42.9	42.9	42.9	73	34.9	0	1	90	0.00	30.354 
08:05	42.6	42.6	42.6	74	34.9	0	1	90	0.00	30.354 
08:10	42.3	42.3	42.3	74	34.6	0	1	90	0.00	30.354 
08:15	42.2	42.2	42.2	74	34.5	0	1	90	0.00	30.366 
08:20	42.1	42.1	42.1	74	34.4	0	2	90	0.00	30.366 
08:25	41.9	41.9	41.9	75	34.6	0	1	90	0.00	30.366 
08:30	41.9	41.9	41.9	75	34.6	0	2	90	0.00	30.372 
08:35	41.9	41.9	41.9	75	34.6	0	1	90	0.00	30.372 
08:40	41.9	41.9	41.9	75	34.6	0	4	90	0.00	30.372 
08:45	41.9	41.9	41.9	75	34.6	0	1	90	0.00	30.379 
08:50	42.1	42.1	42.1	75	34.8	0	1	90	0.00	30.379 
08:55	42.1	42.1	42.1	74	34.4	0	1	90	0.00	30.379 
09:00	42.1	42.1	42.1	74	34.4	0	1	90	0.00	30.388 
09:05	42.2	42.2	42.2	73	34.2	0	3	90	0.00	30.388 
09:10	42.2	42.2	42.2	72	33.8	1	5	112	0.00	30.388 
09:15	42.3	42.3	42.3	72	33.9	0	1	45	0.00	30.399 
09:20	42.5	42.5	42.5	72	34.1	0	2	45	0.00	30.399 
09:25	42.6	42.6	42.6	69	33.2	1	6	68	0.00	30.399 
09:30	42.6	42.6	42.6	68	32.8	1	3	112	0.00	30.405 
09:35	42.8	42.8	42.8	68	33.0	1	4	112	0.00	30.405 
09:40	42.9	42.9	42.9	67	32.7	0	1	112	0.00	30.405 
09:45	43.1	43.1	43.1	66	32.5	0	2	90	0.00	30.409 
09:50	43.2	43.2	43.2	65	32.2	0	3	90	0.00	30.409 
09:55	43.5	43.5	43.5	65	32.5	1	4	112	0.00	30.409 
10:00	43.9	43.9	43.9	64	32.5	1	5	112	0.00	30.413 
10:05	44.2	44.2	44.2	63	32.4	1	5	112	0.00	30.413 
10:10	44.8	44.8	44.8	61	32.2	1	5	112	0.00	30.413 
10:15	45.2	45.2	45.2	60	32.1	1	4	112	0.00	30.415 
10:20	45.8	45.8	45.8	59	32.3	1	5	68	0.00	30.415 
10:25	46.1	44.4	46.1	57	31.7	4	9	90	0.00	30.415 
10:30	46.2	46.2	46.2	58	32.2	1	5	90	0.00	30.424 
10:35	46.7	46.7	46.7	58	32.7	2	5	90	0.00	30.424 
10:40	47.0	47.0	47.0	56	32.1	2	6	112	0.00	30.424 
10:45	47.3	47.3	47.3	56	32.4	2	5	90	0.00	30.423 
10:50	47.6	47.6	47.6	54	31.8	3	5	112	0.00	30.423 
10:55	47.6	47.6	47.6	55	32.2	1	3	68	0.00	30.423 
11:00	47.6	47.6	47.6	53	31.3	1	4	68	0.00	30.429 
11:05	47.9	47.9	47.9	53	31.6	1	6	135	0.00	30.429 
11:10	47.9	47.9	47.9	52	31.1	1	4	90	0.00	30.429 
11:15	47.6	47.6	47.6	51	30.4	2	5	135	0.00	30.432 
11:20	47.7	47.7	47.7	51	30.5	1	4	45	0.00	30.432 
11:25	47.7	47.7	47.7	49	29.5	2	7	112	0.00	30.432 
11:30	48.3	48.3	48.3	51	31.0	2	4	90	0.00	30.436 
11:35	48.9	48.9	48.9	47	29.6	1	3	90	0.00	30.436 
11:40	49.2	49.2	49.2	45	28.8	1	3	0	0.00	30.436 
11:45	49.1	49.1	49.1	46	29.2	1	3	0	0.00	30.429 
11:50	49.2	49.2	49.2	44	28.2	1	4	68	0.00	30.429 
11:55	49.5	49.5	49.5	46	29.6	2	6	112	0.00	30.429 
12:00	49.6	49.6	49.6	45	29.1	1	3	112	0.00	30.428 
12:05	49.9	49.9	49.9	46	30.0	2	6	112	0.00	30.428 
12:10	50.2	50.2	50.2	44	29.1	1	4	112	0.00	30.428 
12:15	50.5	50.5	50.5	41	27.7	1	5	90	0.00	30.422 
12:20	50.7	50.7	50.7	42	28.5	1	6	90	0.00	30.422 
12:25	50.7	50.7	50.7	44	29.6	2	5	90	0.00	30.422 
12:30	51.0	51.0	51.0	43	29.3	1	5	90	0.00	30.427 
12:35	51.3	51.3	51.3	42	29.0	1	3	90	0.00	30.427 
12:40	51.1	51.1	51.1	42	28.8	1	6	112	0.00	30.427 
12:45	51.1	51.1	51.1	43	29.4	2	7	90	0.00	30.429 
12:50	51.3	51.3	51.3	39	27.2	1	9	90	0.00	30.429 
12:55	51.1	51.1	51.1	39	27.0	2	5	90	0.00	30.429 
13:00	51.0	51.0	51.0	39	26.9	3	9	90	0.00	30.428 
13:05	51.0	51.0	51.0	38	26.3	1	4	90	0.00	30.428 
13:10	51.0	51.0	51.0	39	26.9	2	6	112	0.00	30.428 
13:15	50.8	50.8	50.8	37	25.5	2	6	90	0.00	30.418 
13:20	51.0	51.0	51.0	39	26.9	1	4	112	0.00	30.418 
13:25	51.1	51.1	51.1	38	26.4	2	6	90	0.00	30.418 
13:30	51.1	51.1	51.1	37	25.7	1	4	135	0.00	30.420 
13:35	51.3	51.3	51.3	36	25.3	1	3	90	0.00	30.420 
13:40	51.4	51.4	51.4	39	27.3	2	4	90	0.00	30.420 
13:45	51.7	51.7	51.7	38	26.9	2	5	68	0.00	30.415 
13:50	51.4	51.4	51.4	35	24.7	3	9	90	0.00	30.415 
13:55	51.0	51.0	51.0	35	24.3	2	6	90	0.00	30.415 
14:00	51.1	51.1	51.1	37	25.7	1	6	90	0.00	30.413 
14:05	51.0	51.0	51.0	38	26.3	2	6	112	0.00	30.413 
14:10	51.4	51.4	51.4	35	24.7	2	5	112	0.00	30.413 
14:15	51.9	51.9	51.9	36	25.8	1	5	90	0.00	30.404 
14:20	52.2	52.2	52.2	39	28.0	2	8	90	0.00	30.404 
14:25	51.7	51.7	51.7	37	26.3	2	6	90	0.00	30.404 
14:30	51.4	51.4	51.4	37	26.0	2	5	90	0.00	30.408 
14:35	51.6	51.6	51.6	34	24.2	3	10	90	0.00	30.408 
14:40	51.4	51.4	51.4	33	23.3	2	7	90	0.00	30.408 
14:45	51.6	51.6	51.6	35	24.9	1	4	90	0.00	30.404 
14:50	51.7	51.7	51.7	35	24.9	0	2	90	0.00	30.404 
14:55	52.2	52.2	52.2	34	24.7	2	7	90	0.00	30.404 
15:00	52.3	52.3	52.3	32	23.3	2	6	112	0.00	30.399 
15:05	52.5	52.5	52.5	32	23.5	1	5	90	0.00	30.399 
15:10	52.3	52.3	52.3	33	24.1	2	5	90	0.00	30.399 
15:15	52.0	52.0	52.0	29	20.7	2	6	90	0.00	30.402 
15:20	51.9	51.9	51.9	30	21.5	1	4	225	0.00	30.402 
15:25	51.9	51.9	51.9	31	22.2	2	6	112	0.00	30.402 
15:30	52.2	52.2	52.2	32	23.2	1	2	112	0.00	30.396 
15:35	52.3	52.3	52.3	28	20.2	0	2	112	0.00	30.396 
15:40	52.3	52.3	52.3	30	21.8	1	4	112	0.00	30.396 
15:45	52.3	52.3	52.3	29	21.0	1	6	112	0.00	30.388 
15:50	52.5	52.5	52.5	31	22.8	2	9	112	0.00	30.388 
15:55	52.3	52.3	52.3	29	21.0	3	7	90	0.00	30.388 
16:00	52.3	52.3	52.3	30	21.8	1	4	90	0.00	30.390 
16:05	52.2	52.2	52.2	31	22.5	2	7	68	0.00	30.390 
16:10	52.0	52.0	52.0	31	22.3	1	5	68	0.00	30.390 
16:15	52.0	52.0	52.0	31	22.3	1	4	112	0.00	30.385 
16:20	52.0	52.0	52.0	29	20.7	2	4	68	0.00	30.385 
16:25	52.0	52.0	52.0	32	23.1	1	4	112	0.00	30.385 
16:30	52.0	52.0	52.0	30	21.5	2	6	112	0.00	30.379 
16:35	52.0	52.0	52.0	30	21.5	1	4	90	0.00	30.379 
16:40	52.0	52.0	52.0	30	21.5	1	4	90	0.00	30.379 
16:45	51.9	51.9	51.9	30	21.5	0	3	90	0.00	30.384 
16:50	52.0	52.0	52.0	31	22.3	2	4	90	0.00	30.384 
16:55	52.2	52.2	52.2	32	23.2	1	3	90	0.00	30.384 
17:00	52.2	52.2	52.2	32	23.2	1	5	90	0.00	30.388 
17:05	52.2	52.2	52.2	31	22.5	1	3	90	0.00	30.388 
17:10	52.0	52.0	52.0	32	23.1	1	3	90	0.00	30.388 
17:15	52.0	52.0	52.0	32	23.1	0	2	90	0.00	30.387 
17:20	52.0	52.0	52.0	34	24.5	0	1	90	0.00	30.387 
17:25	51.9	51.9	51.9	31	22.2	1	3	90	0.00	30.387 
17:30	51.9	51.9	51.9	31	22.2	2	5	90	0.00	30.383 
17:35	51.9	51.9	51.9	32	23.0	2	5	90	0.00	30.383 
17:40	51.7	51.7	51.7	31	22.1	1	3	90	0.00	30.383 
17:45	51.6	51.6	51.6	31	22.0	1	3	90	0.00	30.377 
17:50	51.4	51.4	51.4	32	22.5	1	4	90	0.00	30.377 
17:55	51.4	51.4	51.4	32	22.5	0	2	90	0.00	30.377 
18:00	51.3	51.3	51.3	30	20.9	1	4	90	0.00	30.384 
18:05	51.3	51.3	51.3	32	22.5	0	3	90	0.00	30.384 
18:10	51.1	51.1	51.1	32	22.3	1	2	90	0.00	30.384 
18:15	51.1	51.1	51.1	31	21.5	1	3	68	0.00	30.383 
18:20	51.0	51.0	51.0	31	21.4	1	3	68	0.00	30.383 
18:25	50.8	50.8	50.8	32	22.0	1	2	68	0.00	30.383 
18:30	50.7	50.7	50.7	33	22.7	1	3	68	0.00	30.385 
18:35	50.5	50.5	50.5	33	22.5	1	2	68	0.00	30.385 
18:40	50.4	50.4	50.4	34	23.1	0	3	68	0.00	30.385 
18:45	50.2	50.2	50.2	35	23.6	0	3	68	0.00	30.384 
18:50	49.9	49.9	49.9	35	23.3	1	3	68	0.00	30.384 
18:55	49.8	49.8	49.8	35	23.3	0	1	68	0.00	30.384 
19:00	49.5	49.5	49.5	36	23.7	0	2	68	0.00	30.378 
19:05	49.1	49.1	49.1	37	24.0	0	0	---	0.00	30.378 
19:10	48.8	48.8	48.8	39	25.0	0	0	---	0.00	30.378 
19:15	48.2	48.2	48.2	40	25.0	0	0	---	0.00	30.378 
19:20	47.6	47.6	47.6	41	25.1	0	0	---	0.00	30.378 
19:25	47.0	47.0	47.0	43	25.7	0	0	---	0.00	30.378 
19:30	46.4	46.4	46.4	43	25.1	0	0	---	0.00	30.380 
19:35	45.8	45.8	45.8	45	25.7	0	0	---	0.00	30.380 
19:40	45.2	45.2	45.2	47	26.2	0	0	---	0.00	30.380 
19:45	44.6	44.6	44.6	47	25.6	0	0	---	0.00	30.383 
19:50	44.2	44.2	44.2	49	26.3	0	0	---	0.00	30.383 
19:55	43.8	43.8	43.8	50	26.4	0	0	---	0.00	30.383 
20:00	43.2	43.2	43.2	51	26.3	0	0	---	0.00	30.384 
20:05	42.8	42.8	42.8	52	26.4	0	0	---	0.00	30.384 
20:10	42.3	42.3	42.3	53	26.4	0	0	---	0.00	30.384 
20:15	41.9	41.9	41.9	54	26.5	0	0	---	0.00	30.391 
20:20	41.5	41.5	41.5	55	26.6	0	0	---	0.00	30.391 
20:25	41.2	41.2	41.2	55	26.3	0	0	---	0.00	30.391 
20:30	40.8	40.8	40.8	57	26.8	0	0	---	0.00	30.395 
20:35	40.3	40.3	40.3	58	26.7	0	0	---	0.00	30.395 
20:40	40.1	40.1	40.1	60	27.3	0	0	---	0.00	30.395 
20:45	39.9	39.9	39.9	62	28.0	0	0	---	0.00	30.389 
20:50	39.6	39.6	39.6	63	28.1	0	0	---	0.00	30.389 
20:55	39.3	39.3	39.3	64	28.2	0	0	---	0.00	30.389 
21:00	39.2	39.2	39.2	66	28.8	0	0	---	0.00	30.389 
21:05	38.9	38.9	38.9	67	28.9	0	0	---	0.00	30.389 
21:10	38.6	38.6	38.6	67	28.6	0	0	---	0.00	30.389 
21:15	38.5	38.5	38.5	68	28.9	0	0	---	0.00	30.386 
21:20	38.2	38.2	38.2	69	28.9	0	0	---	0.00	30.386 
21:25	37.9	37.9	37.9	70	29.0	0	0	---	0.00	30.386 
21:30	37.8	37.8	37.8	71	29.3	0	0	---	0.00	30.398 
21:35	37.6	37.6	37.6	71	29.1	0	0	---	0.00	30.398 
21:40	37.5	37.5	37.5	72	29.3	0	0	---	0.00	30.398 
21:45	37.2	37.2	37.2	73	29.4	0	0	---	0.00	30.401 
21:50	37.2	37.2	37.2	73	29.4	0	0	---	0.00	30.401 
21:55	37.0	37.0	37.0	73	29.2	0	0	---	0.00	30.401 
22:00	36.9	36.9	36.9	72	28.7	0	0	---	0.00	30.403 
22:05	36.9	36.9	36.9	71	28.4	0	0	---	0.00	30.403 
22:10	36.9	36.9	36.9	71	28.4	0	0	---	0.00	30.403 
22:15	37.0	37.0	37.0	70	28.1	0	0	---	0.00	30.399 
22:20	37.2	37.2	37.2	68	27.6	0	1	68	0.00	30.399 
22:25	38.0	38.0	38.0	65	27.3	0	0	---	0.00	30.399 
22:30	38.5	38.5	38.5	65	27.8	0	0	---	0.00	30.395 
22:35	38.9	38.9	38.9	64	27.8	0	0	---	0.00	30.395 
22:40	38.9	38.9	38.9	64	27.8	0	0	---	0.00	30.395 
22:45	39.2	39.2	39.2	63	27.7	0	1	68	0.00	30.397 
22:50	39.6	39.6	39.6	62	27.7	0	2	68	0.00	30.397 
22:55	40.1	40.1	40.1	62	28.1	0	1	68	0.00	30.397 
23:00	40.2	40.2	40.2	62	28.2	0	4	68	0.00	30.388 
23:05	40.1	40.1	40.1	63	28.5	0	2	68	0.00	30.388 
23:10	40.1	40.1	40.1	63	28.5	0	1	68	0.00	30.388 
23:15	40.1	40.1	40.1	64	28.9	0	2	68	0.00	30.391 
23:20	40.1	40.1	40.1	65	29.3	0	1	68	0.00	30.391 
23:25	39.9	39.9	39.9	65	29.1	0	1	68	0.00	30.391 
23:30	39.9	39.9	39.9	65	29.1	0	3	68	0.00	30.382 
23:35	39.8	39.8	39.8	66	29.4	0	1	68	0.00	30.382 
23:40	39.8	39.8	39.8	66	29.4	0	2	68	0.00	30.382 
23:45	39.6	39.6	39.6	67	29.6	0	2	68	0.00	30.377 
23:50	39.6	39.6	39.6	67	29.6	0	2	68	0.00	30.377 
23:55	39.5	39.5	39.5	68	29.8	0	1	68	0.00	30.377 

CoCoRaHS
IN-AL-39
A2 Web Hosting
Creative Commons License
GoDaddy
search engine by freefind advanced

loaded 2018-11-17 12:34:34 • last modified 2010-11-18 10:43:29
Privacy PolicyDisclaimer
• wx.awcolley.com is powered by PmWiki v.2002016 •
• all content (unless otherwise noted) © 2018 A W Colley